Time;durP1;ratioP1;P1;durP2;ratioP2;P2;SDS_P1;SDS_P2;PMS_P1;PMS_P2;Temp;Humidity;BMP_temperature;BMP_pressure;BME280_temperature;BME280_humidity;BME280_pressure;Samples;Min_cycle;Max_cycle;Signal;HPM_P1;HPM_P2
2022/11/20 00:00:20;;;;;;;;;;;;;;;8.85;44.91;98737.72;4503197;31;34401;-88
2022/11/20 00:02:47;;;;;;;;;;;;;;;8.71;45.32;98737.53;4512060;31;34018;-87
2022/11/20 00:05:15;;;;;;;;;;;;;;;8.46;45.39;98728.59;4505419;31;32963;-88
2022/11/20 00:07:42;;;;;;;;;;;;;;;8.74;45.13;98728.09;4501027;31;33913;-89
2022/11/20 00:10:09;;;;;;;;;;;;;;;7.79;46.42;98725.78;4509243;31;33919;-88
2022/11/20 00:12:39;;;;;;;;;;;;;;;7.41;47.90;98732.88;4515310;31;34316;-88
2022/11/20 00:15:06;;;;;;;;;;;;;;;7.22;48.17;98741.97;4515803;31;33430;-88
2022/11/20 00:17:33;;;;;;;;;;;;;;;6.64;49.14;98739.09;4515821;31;34251;-88
2022/11/20 00:20:01;;;;;;;;;;;;;;;7.24;48.04;98736.00;4511867;31;34270;-89
2022/11/20 00:22:28;;;;;;;;;;;;;;;8.04;46.12;98738.25;4499831;31;35084;-89
2022/11/20 00:24:57;;;;;;;;;;;;;;;9.07;44.13;98744.03;4502739;31;33223;-89
2022/11/20 00:27:24;;;;;;;;;;;;;;;9.05;43.84;98732.78;4499858;31;34929;-88
2022/11/20 00:29:51;;;;;;;;;;;;;;;8.50;44.76;98738.97;4499702;31;34513;-88
2022/11/20 00:32:18;;;;;;;;;;;;;;;7.89;46.11;98734.56;4499919;31;34237;-88
2022/11/20 00:34:46;;;;;;;;;;;;;;;9.01;43.64;98747.38;4502601;31;33026;-90
2022/11/20 00:37:13;;;;;;;;;;;;;;;9.54;42.89;98747.12;4515486;31;35355;-88
2022/11/20 00:39:40;;;;;;;;;;;;;;;9.61;42.94;98764.44;4515619;31;34124;-89
2022/11/20 00:42:07;;;;;;;;;;;;;;;9.37;42.88;98752.13;4515619;31;34156;-89
2022/11/20 00:44:34;;;;;;;;;;;;;;;9.36;42.09;98739.19;4512212;31;32450;-89
2022/11/20 00:47:02;;;;;;;;;;;;;;;8.89;43.04;98735.19;4499644;31;34259;-89
2022/11/20 00:49:29;;;;;;;;;;;;;;;7.83;45.69;98737.03;4499812;31;34141;-90
2022/11/20 00:51:56;;;;;;;;;;;;;;;8.44;44.45;98738.03;4502563;31;33381;-90
2022/11/20 00:54:23;;;;;;;;;;;;;;;6.89;47.41;98737.88;4515557;31;33071;-88
2022/11/20 00:56:52;;;;;;;;;;;;;;;6.63;48.50;98734.78;4490155;31;786236;-89
2022/11/20 00:59:19;;;;;;;;;;;;;;;7.13;47.58;98728.91;4513931;31;35192;-88
2022/11/20 01:01:47;;;;;;;;;;;;;;;6.44;48.93;98725.78;4513138;31;34657;-88
2022/11/20 01:04:14;;;;;;;;;;;;;;;7.31;47.06;98722.41;4499512;31;34747;-89
2022/11/20 01:06:41;;;;;;;;;;;;;;;7.28;47.36;98732.66;4499668;31;34275;-88
2022/11/20 01:09:10;;;;;;;;;;;;;;;7.80;46.59;98725.84;4499531;31;33987;-86
2022/11/20 01:11:39;;;;;;;;;;;;;;;7.54;46.98;98735.72;4499460;31;33971;-89
2022/11/20 01:14:09;;;;;;;;;;;;;;;8.16;45.61;98737.59;4497978;31;34051;-89
2022/11/20 01:16:37;;;;;;;;;;;;;;;8.43;44.49;98751.78;4499641;31;34802;-88
2022/11/20 01:19:06;;;;;;;;;;;;;;;8.31;45.09;98749.00;4500001;31;35269;-89
2022/11/20 01:21:37;;;;;;;;;;;;;;;8.16;45.12;98747.91;4499806;31;33715;-90
2022/11/20 01:24:06;;;;;;;;;;;;;;;8.40;44.57;98747.44;4499317;31;33437;-89
2022/11/20 01:26:34;;;;;;;;;;;;;;;8.44;44.70;98753.53;4506505;31;34801;-88
2022/11/20 01:29:02;;;;;;;;;;;;;;;8.56;44.25;98751.13;4511577;31;33829;-88
2022/11/20 01:31:30;;;;;;;;;;;;;;;8.56;44.42;98748.56;4514844;31;35110;-88
2022/11/20 01:33:58;;;;;;;;;;;;;;;8.77;44.21;98735.91;4515344;31;33303;-89
2022/11/20 01:36:26;;;;;;;;;;;;;;;8.26;44.43;98744.63;4514526;31;34047;-89
2022/11/20 01:38:54;;;;;;;;;;;;;;;8.29;45.02;98742.06;4505001;31;34282;-89
2022/11/20 01:44:09;;;;;;;;;;;;;;;8.89;44.03;98747.25;4508674;31;33054;-89
2022/11/20 01:46:37;;;;;;;;;;;;;;;9.22;43.43;98733.84;4513562;31;34070;-90
2022/11/20 01:49:05;;;;;;;;;;;;;;;9.11;43.59;98730.28;4503301;31;34146;-89
2022/11/20 01:51:39;;;;;;;;;;;;;;;9.47;43.17;98722.03;4499249;31;34206;-89
2022/11/20 01:54:08;;;;;;;;;;;;;;;9.36;42.88;98723.66;4508260;31;32889;-89
2022/11/20 01:56:36;;;;;;;;;;;;;;;8.26;45.40;98728.28;4514571;31;34272;-90
2022/11/20 01:59:04;;;;;;;;;;;;;;;9.51;42.49;98718.66;4503944;31;33878;-90
2022/11/20 02:01:31;;;;;;;;;;;;;;;9.64;42.88;98720.47;4498895;31;34871;-89
2022/11/20 02:03:58;;;;;;;;;;;;;;;9.79;42.42;98713.72;4507246;31;33460;-90
2022/11/20 02:06:26;;;;;;;;;;;;;;;9.84;42.35;98727.56;4506375;31;33854;-89
2022/11/20 02:08:53;;;;;;;;;;;;;;;9.61;42.56;98724.75;4503955;31;34287;-89
2022/11/20 02:11:21;;;;;;;;;;;;;;;9.82;42.42;98729.28;4512488;31;35182;-88
2022/11/20 02:13:48;;;;;;;;;;;;;;;9.99;42.23;98738.03;4507203;31;33318;-88
2022/11/20 02:16:16;;;;;;;;;;;;;;;10.45;41.61;98728.94;4498374;31;34101;-90
2022/11/20 02:18:44;;;;;;;;;;;;;;;10.89;40.88;98714.44;4505634;31;35003;-89
2022/11/20 02:21:26;;;;;;;;;;;;;;;11.14;40.34;98721.47;4513215;31;33924;-87
2022/11/20 02:24:01;;;;;;;;;;;;;;;11.38;39.68;98730.19;4506758;31;34156;-90
2022/11/20 02:26:30;;;;;;;;;;;;;;;10.90;40.19;98732.59;4497694;31;35086;-89
2022/11/20 02:28:58;;;;;;;;;;;;;;;11.17;39.74;98728.37;4505901;31;35300;-88
2022/11/20 02:31:25;;;;;;;;;;;;;;;11.06;40.20;98720.59;4514850;31;33996;-89
2022/11/20 02:33:55;;;;;;;;;;;;;;;11.30;39.99;98713.72;4507154;31;33588;-89
2022/11/20 02:36:23;;;;;;;;;;;;;;;11.17;39.74;98708.50;4498591;31;34619;-90
2022/11/20 02:38:50;;;;;;;;;;;;;;;11.28;39.89;98710.25;4499483;31;35145;-90
2022/11/20 02:41:17;;;;;;;;;;;;;;;10.78;40.96;98714.41;4507580;31;34027;-88
2022/11/20 02:43:44;;;;;;;;;;;;;;;11.23;40.14;98711.97;4507567;31;33504;-88
2022/11/20 02:46:12;;;;;;;;;;;;;;;11.33;39.87;98698.19;4498637;31;34912;-87
2022/11/20 02:48:41;;;;;;;;;;;;;;;11.18;39.80;98701.59;4500622;31;35187;-87
2022/11/20 02:51:16;;;;;;;;;;;;;;;11.28;39.76;98699.88;4498506;31;33509;-88
2022/11/20 02:53:43;;;;;;;;;;;;;;;11.32;39.84;98699.88;4497251;31;33206;-89
2022/11/20 02:56:10;;;;;;;;;;;;;;;11.12;40.30;98715.41;4498209;31;33731;-89
2022/11/20 02:58:37;;;;;;;;;;;;;;;10.93;40.91;98706.69;4502590;31;34998;-88
2022/11/20 03:01:04;;;;;;;;;;;;;;;10.71;41.12;98702.25;4512872;31;34128;-89
2022/11/20 03:03:32;;;;;;;;;;;;;;;10.66;41.50;98691.88;4514437;31;33187;-87
2022/11/20 03:05:59;;;;;;;;;;;;;;;9.27;44.00;98686.47;4514281;31;33660;-90
2022/11/20 03:08:26;;;;;;;;;;;;;;;8.15;47.03;98696.25;4510036;31;33729;-88
2022/11/20 03:10:54;;;;;;;;;;;;;;;7.83;48.28;98695.75;4498061;31;33279;-88
2022/11/20 03:13:21;;;;;;;;;;;;;;;7.83;48.62;98690.59;4498343;31;34210;-88
2022/11/20 03:15:48;;;;;;;;;;;;;;;6.92;50.88;98699.28;4498293;31;34280;-90
2022/11/20 03:18:15;;;;;;;;;;;;;;;6.93;51.45;98697.56;4500572;31;35042;-89
2022/11/20 03:20:43;;;;;;;;;;;;;;;7.37;50.19;98694.97;4514198;31;34175;-90
2022/11/20 03:23:10;;;;;;;;;;;;;;;7.35;49.47;98707.84;4513962;31;33298;-89
2022/11/20 03:25:37;;;;;;;;;;;;;;;7.49;49.72;98711.53;4513997;31;33933;-89
2022/11/20 03:28:04;;;;;;;;;;;;;;;7.31;50.23;98731.81;4502627;31;35254;-88
2022/11/20 03:30:31;;;;;;;;;;;;;;;7.19;50.60;98731.59;4500231;31;34266;-89
2022/11/20 03:32:58;;;;;;;;;;;;;;;8.11;48.15;98726.31;4500303;31;33797;-88
2022/11/20 03:35:26;;;;;;;;;;;;;;;8.37;47.63;98710.31;4513640;31;33895;-89
2022/11/20 03:37:53;;;;;;;;;;;;;;;9.00;46.10;98712.91;4515952;31;35256;-89
2022/11/20 03:40:20;;;;;;;;;;;;;;;9.64;45.04;98704.09;4516037;31;34502;-90
2022/11/20 03:42:47;;;;;;;;;;;;;;;9.91;44.72;98704.31;4515997;31;33031;-89
2022/11/20 03:45:16;;;;;;;;;;;;;;;10.07;43.26;98697.53;4502265;31;34924;-88
2022/11/20 03:47:43;;;;;;;;;;;;;;;9.73;43.66;98693.81;4500046;31;34361;-89
2022/11/20 03:50:14;;;;;;;;;;;;;;;10.08;43.56;98695.81;4500213;31;34804;-88
2022/11/20 03:52:41;;;;;;;;;;;;;;;10.23;43.62;98707.16;4499992;31;33086;-90
2022/11/20 03:55:09;;;;;;;;;;;;;;;10.45;43.20;98710.78;4510040;31;33545;-90
2022/11/20 03:57:36;;;;;;;;;;;;;;;10.55;42.79;98710.81;4515817;31;34860;-89
2022/11/20 04:00:04;;;;;;;;;;;;;;;10.50;43.07;98707.34;4516292;31;34853;-90
2022/11/20 04:02:31;;;;;;;;;;;;;;;10.66;42.52;98693.59;4515774;31;33334;-90
2022/11/20 04:04:59;;;;;;;;;;;;;;;11.06;41.62;98689.47;4508817;31;33553;-89
2022/11/20 04:07:26;;;;;;;;;;;;;;;10.65;42.27;98682.37;4514557;31;35347;-89
2022/11/20 04:09:53;;;;;;;;;;;;;;;10.75;42.07;98685.00;4514363;31;34100;-89
2022/11/20 04:12:20;;;;;;;;;;;;;;;10.77;42.21;98672.91;4516048;31;32762;-89
2022/11/20 04:14:47;;;;;;;;;;;;;;;11.01;41.76;98672.13;4515753;31;34550;-89
2022/11/20 04:17:15;;;;;;;;;;;;;;;11.01;41.65;98664.34;4515481;31;33986;-89
2022/11/20 04:19:42;;;;;;;;;;;;;;;10.64;42.50;98654.69;4515883;31;34544;-88
2022/11/20 04:22:11;;;;;;;;;;;;;;;10.37;43.38;98651.97;4515763;31;34242;-89
2022/11/20 04:24:38;;;;;;;;;;;;;;;10.41;43.30;98654.59;4515657;31;34038;-89
2022/11/20 04:27:05;;;;;;;;;;;;;;;10.38;43.71;98658.87;4500835;31;35163;-89
2022/11/20 04:29:33;;;;;;;;;;;;;;;10.79;42.85;98669.44;4499802;31;35073;-89
2022/11/20 04:32:00;;;;;;;;;;;;;;;10.35;43.35;98664.09;4499633;31;33567;-89
2022/11/20 04:34:27;;;;;;;;;;;;;;;10.66;42.57;98660.75;4515363;31;34466;-89
2022/11/20 04:36:54;;;;;;;;;;;;;;;10.62;42.94;98660.75;4515476;31;34232;-89
2022/11/20 04:39:22;;;;;;;;;;;;;;;10.88;42.37;98666.91;4515130;31;34356;-89
2022/11/20 04:42:28;;;;;;;;;;;;;;;10.89;42.35;98652.22;4515555;31;34063;-88
2022/11/20 04:44:37;;;;;;;;;;;;;;;10.58;42.47;98646.91;4499589;31;35039;-89
2022/11/20 04:47:04;;;;;;;;;;;;;;;10.24;43.52;98657.06;4499742;31;35265;-90
2022/11/20 04:49:31;;;;;;;;;;;;;;;10.37;43.01;98657.16;4499732;31;35066;-89
2022/11/20 04:51:59;;;;;;;;;;;;;;;10.17;43.43;98650.13;4499576;31;31949;-90
2022/11/20 04:54:26;;;;;;;;;;;;;;;10.82;41.47;98637.50;4500826;31;34245;-89
2022/11/20 04:56:53;;;;;;;;;;;;;;;10.41;42.71;98635.59;4499580;31;34396;-89
2022/11/20 04:59:20;;;;;;;;;;;;;;;10.41;42.86;98628.69;4499585;31;35173;-89
2022/11/20 05:01:48;;;;;;;;;;;;;;;10.80;42.22;98634.91;4505962;31;34295;-89
2022/11/20 05:04:15;;;;;;;;;;;;;;;9.37;45.16;98648.66;4512533;31;34128;-89
2022/11/20 05:06:42;;;;;;;;;;;;;;;10.44;42.92;98643.38;4507702;31;34395;-89
2022/11/20 05:09:10;;;;;;;;;;;;;;;10.37;43.34;98649.38;4514294;31;34226;-87
2022/11/20 05:11:37;;;;;;;;;;;;;;;10.44;42.83;98651.16;4501303;31;33560;-89
2022/11/20 05:14:04;;;;;;;;;;;;;;;10.66;42.46;98649.53;4499395;31;34985;-89
2022/11/20 05:16:33;;;;;;;;;;;;;;;10.32;43.19;98646.78;4499425;31;34334;-88
2022/11/20 05:19:00;;;;;;;;;;;;;;;10.00;43.83;98646.56;4501754;31;34789;-90
2022/11/20 05:21:29;;;;;;;;;;;;;;;9.85;44.21;98652.50;4514869;31;33196;-89
2022/11/20 05:23:56;;;;;;;;;;;;;;;9.92;44.29;98658.56;4515386;31;34607;-88
2022/11/20 05:26:24;;;;;;;;;;;;;;;10.44;43.23;98656.34;4515349;31;34935;-90
2022/11/20 05:28:51;;;;;;;;;;;;;;;10.65;42.86;98637.44;4515120;31;34217;-89
2022/11/20 05:31:19;;;;;;;;;;;;;;;11.16;41.91;98631.53;4505459;31;34250;-89
2022/11/20 05:33:53;;;;;;;;;;;;;;;11.19;41.88;98631.53;4499530;31;34090;-90
2022/11/20 05:36:20;;;;;;;;;;;;;;;10.92;42.16;98626.28;4499583;31;33952;-90
2022/11/20 05:38:48;;;;;;;;;;;;;;;10.49;43.08;98615.75;4499483;31;33889;-88
2022/11/20 05:41:18;;;;;;;;;;;;;;;10.83;42.48;98600.31;4499469;31;34044;-88
2022/11/20 05:43:46;;;;;;;;;;;;;;;11.18;41.77;98609.06;4503858;31;34106;-90
2022/11/20 05:46:14;;;;;;;;;;;;;;;10.56;43.33;98627.88;4514587;31;34305;-89
2022/11/20 05:48:41;;;;;;;;;;;;;;;10.15;43.37;98628.53;4515319;31;34995;-89
2022/11/20 05:51:09;;;;;;;;;;;;;;;10.33;43.11;98645.06;4512686;31;34013;-90
2022/11/20 05:53:36;;;;;;;;;;;;;;;10.35;43.24;98644.22;4515128;31;34038;-89
2022/11/20 05:56:05;;;;;;;;;;;;;;;9.93;44.00;98649.97;4508308;31;35179;-87
2022/11/20 05:58:32;;;;;;;;;;;;;;;10.75;42.35;98653.88;4499100;31;33862;-89
2022/11/20 06:01:03;;;;;;;;;;;;;;;10.59;42.48;98643.44;4498187;31;32695;-89
2022/11/20 06:03:30;;;;;;;;;;;;;;;10.50;42.05;98632.19;4498919;31;34434;-90
2022/11/20 06:05:58;;;;;;;;;;;;;;;10.65;41.95;98656.44;4499106;31;33725;-89
2022/11/20 06:08:25;;;;;;;;;;;;;;;10.22;42.68;98661.34;4512340;31;33896;-88
2022/11/20 06:10:53;;;;;;;;;;;;;;;10.15;42.66;98640.59;4514596;31;34251;-89
2022/11/20 06:13:20;;;;;;;;;;;;;;;10.32;42.76;98651.09;4514981;31;34963;-89
2022/11/20 06:15:51;;;;;;;;;;;;;;;10.29;42.94;98658.84;4510317;31;35227;-89
2022/11/20 06:18:18;;;;;;;;;;;;;;;9.78;43.67;98649.88;4511314;31;33793;-90
2022/11/20 06:20:46;;;;;;;;;;;;;;;10.18;43.30;98657.03;4506778;31;32859;-89
2022/11/20 06:23:13;;;;;;;;;;;;;;;10.16;42.74;98658.75;4500769;31;33846;-89
2022/11/20 06:25:41;;;;;;;;;;;;;;;10.15;43.09;98653.53;4501153;31;34058;-88
2022/11/20 06:28:08;;;;;;;;;;;;;;;10.42;42.59;98658.06;4501461;31;34174;-89
2022/11/20 06:30:35;;;;;;;;;;;;;;;9.98;43.43;98662.06;4502742;31;32942;-88
2022/11/20 06:33:03;;;;;;;;;;;;;;;9.55;44.63;98668.66;4512868;31;35236;-89
2022/11/20 06:35:30;;;;;;;;;;;;;;;9.51;44.54;98682.41;4514767;31;35389;-88
2022/11/20 06:37:57;;;;;;;;;;;;;;;8.77;46.27;98689.37;4514855;31;33881;-90
2022/11/20 06:40:24;;;;;;;;;;;;;;;8.99;46.00;98689.63;4514770;31;32934;-90
2022/11/20 06:42:53;;;;;;;;;;;;;;;8.98;46.06;98695.66;4514836;31;33544;-89
2022/11/20 06:45:20;;;;;;;;;;;;;;;9.58;44.72;98699.72;4503685;31;34313;-89
2022/11/20 06:47:48;;;;;;;;;;;;;;;8.96;45.65;98702.53;4498342;31;33649;-89
2022/11/20 06:50:15;;;;;;;;;;;;;;;9.12;45.78;98704.44;4498720;31;32934;-90
2022/11/20 06:52:42;;;;;;;;;;;;;;;9.53;44.15;98693.62;4498606;31;33573;-89
2022/11/20 06:55:10;;;;;;;;;;;;;;;9.38;44.08;98691.75;4512449;31;35327;-90
2022/11/20 06:57:37;;;;;;;;;;;;;;;9.58;44.01;98684.19;4514342;31;35051;-89
2022/11/20 07:00:04;;;;;;;;;;;;;;;8.89;46.01;98677.44;4510670;31;33779;-90
2022/11/20 07:02:31;;;;;;;;;;;;;;;8.56;46.93;98691.72;4514503;31;34202;-89
2022/11/20 07:04:59;;;;;;;;;;;;;;;8.26;48.05;98686.97;4510460;31;33730;-88
2022/11/20 07:07:26;;;;;;;;;;;;;;;8.51;47.24;98688.19;4503743;31;34999;-88
2022/11/20 07:09:53;;;;;;;;;;;;;;;8.81;46.80;98686.84;4499894;31;33339;-90
2022/11/20 07:12:20;;;;;;;;;;;;;;;9.46;45.49;98689.25;4503531;31;35099;-88
2022/11/20 07:14:47;;;;;;;;;;;;;;;9.98;44.41;98705.25;4510847;31;35212;-88
2022/11/20 07:17:15;;;;;;;;;;;;;;;8.70;47.53;98710.81;4516422;31;34052;-89
2022/11/20 07:19:42;;;;;;;;;;;;;;;9.37;45.81;98704.69;4500642;31;33463;-88
2022/11/20 07:22:09;;;;;;;;;;;;;;;8.32;48.89;98712.84;4499127;31;33693;-88
2022/11/20 07:24:37;;;;;;;;;;;;;;;8.62;48.97;98712.44;4500199;31;35252;-88
2022/11/20 07:27:11;;;;;;;;;;;;;;;8.76;48.78;98718.66;4500209;31;34157;-89
2022/11/20 07:29:39;;;;;;;;;;;;;;;7.92;50.71;98712.25;4514489;31;34507;-87
2022/11/20 07:32:06;;;;;;;;;;;;;;;9.05;48.08;98717.25;4500001;31;34790;-90
2022/11/20 07:34:33;;;;;;;;;;;;;;;7.90;51.32;98718.25;4500189;31;35284;-89
2022/11/20 07:37:01;;;;;;;;;;;;;;;8.27;50.38;98717.97;4500158;31;34193;-88
2022/11/20 07:39:36;;;;;;;;;;;;;;;7.82;52.40;98717.25;4501638;31;32908;-89
2022/11/20 07:42:03;;;;;;;;;;;;;;;8.66;50.09;98719.38;4507972;31;34981;-89
2022/11/20 07:44:30;;;;;;;;;;;;;;;9.06;49.40;98713.84;4514092;31;35233;-88
2022/11/20 07:46:57;;;;;;;;;;;;;;;9.30;49.19;98713.25;4507561;31;34820;-88
2022/11/20 07:49:25;;;;;;;;;;;;;;;9.48;47.80;98703.94;4504545;31;33412;-88
2022/11/20 07:51:55;;;;;;;;;;;;;;;9.01;48.92;98714.63;4509274;31;34202;-88
2022/11/20 07:54:29;;;;;;;;;;;;;;;9.67;47.86;98714.47;4508773;31;34494;-88
2022/11/20 07:56:56;;;;;;;;;;;;;;;9.63;47.95;98711.00;4512315;31;34385;-86
2022/11/20 07:59:23;;;;;;;;;;;;;;;9.60;48.20;98710.09;4508026;31;33597;-91
2022/11/20 08:01:51;;;;;;;;;;;;;;;10.09;47.07;98707.91;4501360;31;34855;-88
2022/11/20 08:04:18;;;;;;;;;;;;;;;10.12;46.84;98703.63;4505007;31;34245;-89
2022/11/20 08:06:45;;;;;;;;;;;;;;;9.65;48.81;98696.31;4510139;31;34107;-91
2022/11/20 08:09:12;;;;;;;;;;;;;;;9.89;47.53;98692.22;4515927;31;33259;-90
2022/11/20 08:14:27;;;;;;;;;;;;;;;10.21;47.36;98695.03;4515015;31;34248;-90
2022/11/20 08:16:54;;;;;;;;;;;;;;;9.51;49.69;98690.19;4514467;31;33885;-89
2022/11/20 08:19:21;;;;;;;;;;;;;;;10.55;47.36;98692.69;4515623;31;33168;-90
2022/11/20 08:21:49;;;;;;;;;;;;;;;10.99;46.33;98690.28;4515831;31;35049;-87
2022/11/20 08:24:16;;;;;;;;;;;;;;;11.14;46.04;98687.75;4515795;31;35230;-88
2022/11/20 08:26:43;;;;;;;;;;;;;;;10.48;47.31;98689.19;4515859;31;34939;-88
2022/11/20 08:29:11;;;;;;;;;;;;;;;10.53;46.99;98691.78;4515984;31;34225;-90
2022/11/20 08:31:38;;;;;;;;;;;;;;;10.85;46.86;98691.97;4515637;31;33699;-90
2022/11/20 08:34:05;;;;;;;;;;;;;;;10.56;47.39;98699.59;4515877;31;34243;-89
2022/11/20 08:36:36;;;;;;;;;;;;;;;10.54;47.80;98702.19;4514641;31;33089;-91
2022/11/20 08:39:03;;;;;;;;;;;;;;;10.47;48.12;98703.00;4515983;31;33844;-90
2022/11/20 08:41:32;;;;;;;;;;;;;;;10.60;48.16;98704.78;4515803;31;34204;-89
2022/11/20 08:44:01;;;;;;;;;;;;;;;11.45;45.99;98691.25;4515370;31;35277;-89
2022/11/20 08:46:33;;;;;;;;;;;;;;;10.98;47.13;98709.28;4514339;31;34026;-89
2022/11/20 08:49:00;;;;;;;;;;;;;;;10.17;48.52;98711.41;4515243;31;33201;-90
2022/11/20 08:51:28;;;;;;;;;;;;;;;10.62;47.91;98726.41;4515654;31;33880;-87
2022/11/20 08:53:55;;;;;;;;;;;;;;;10.55;48.13;98727.25;4515429;31;35163;-88
2022/11/20 08:56:22;;;;;;;;;;;;;;;10.91;46.42;98721.37;4515490;31;33825;-88
2022/11/20 08:58:50;;;;;;;;;;;;;;;10.34;48.16;98735.75;4515283;31;33663;-86
2022/11/20 09:01:37;;;;;;;;;;;;;;;10.42;48.21;98738.41;4515269;31;34764;-88
2022/11/20 09:04:05;;;;;;;;;;;;;;;11.17;46.49;98730.97;4515505;31;33738;-88
2022/11/20 09:06:32;;;;;;;;;;;;;;;11.18;46.42;98738.78;4515400;31;34429;-89
2022/11/20 09:08:59;;;;;;;;;;;;;;;11.26;46.53;98740.53;4515554;31;33988;-88
2022/11/20 09:11:34;;;;;;;;;;;;;;;11.52;46.20;98741.47;4515266;31;35062;-87
2022/11/20 09:14:02;;;;;;;;;;;;;;;11.69;45.59;98737.16;4515433;31;34271;-89
2022/11/20 09:16:29;;;;;;;;;;;;;;;12.18;44.54;98733.75;4515524;31;33648;-89
2022/11/20 09:18:57;;;;;;;;;;;;;;;12.59;43.58;98745.81;4515722;31;34151;-88
2022/11/20 09:21:45;;;;;;;;;;;;;;;12.55;43.25;98739.78;4515448;31;34950;-87
2022/11/20 09:24:12;;;;;;;;;;;;;;;11.74;45.08;98737.16;4515981;31;34602;-88
2022/11/20 09:26:39;;;;;;;;;;;;;;;11.78;44.46;98738.91;4514317;31;35283;-88
2022/11/20 09:29:06;;;;;;;;;;;;;;;11.93;44.31;98731.16;4515866;31;32848;-88
2022/11/20 09:31:34;;;;;;;;;;;;;;;12.25;43.41;98729.41;4515938;31;34834;-88
2022/11/20 09:34:01;;;;;;;;;;;;;;;12.08;43.57;98729.41;4515443;31;35301;-87
2022/11/20 09:36:28;;;;;;;;;;;;;;;12.01;43.22;98723.38;4515724;31;34297;-88
2022/11/20 09:38:56;;;;;;;;;;;;;;;12.20;42.95;98728.53;4515470;31;33287;-88
2022/11/20 09:41:23;;;;;;;;;;;;;;;12.08;43.58;98729.41;4514106;31;34267;-89
2022/11/20 09:43:54;;;;;;;;;;;;;;;12.37;42.95;98726.78;4515628;31;34317;-88
2022/11/20 09:46:26;;;;;;;;;;;;;;;12.08;43.09;98719.87;4513773;31;34671;-88
2022/11/20 09:49:00;;;;;;;;;;;;;;;11.47;43.79;98725.00;4515219;31;34096;-86
2022/11/20 09:51:40;;;;;;;;;;;;;;;10.23;47.78;98732.19;4514023;31;33894;-89
2022/11/20 09:54:10;;;;;;;;;;;;;;;11.53;44.08;98725.03;4515052;31;33843;-86
2022/11/20 09:56:39;;;;;;;;;;;;;;;10.61;45.94;98729.88;4514913;31;34780;-87
2022/11/20 09:59:06;;;;;;;;;;;;;;;10.70;45.41;98727.31;4514167;31;33424;-89
2022/11/20 10:01:34;;;;;;;;;;;;;;;10.90;45.29;98722.22;4513970;31;34254;-88
2022/11/20 10:04:02;;;;;;;;;;;;;;;10.22;46.98;98727.84;4514850;31;35398;-88
2022/11/20 10:06:41;;;;;;;;;;;;;;;10.16;47.34;98722.66;4515053;31;34775;-87
2022/11/20 10:09:11;;;;;;;;;;;;;;;10.42;46.55;98717.69;4514864;31;33241;-87
2022/11/20 10:11:47;;;;;;;;;;;;;;;10.75;46.25;98716.09;4515247;31;34333;-87
2022/11/20 10:14:15;;;;;;;;;;;;;;;9.60;49.48;98703.19;4514893;31;34709;-88
2022/11/20 10:17:00;;;;;;;;;;;;;;;10.11;46.98;98695.81;4515447;31;34508;-86
2022/11/20 10:19:43;;;;;;;;;;;;;;;8.31;52.56;98698.22;4514819;31;33347;-87
2022/11/20 10:22:19;;;;;;;;;;;;;;;8.68;52.42;98697.03;4515007;31;34336;-87
2022/11/20 10:24:46;;;;;;;;;;;;;;;8.88;52.55;98692.09;4514775;31;34386;-87
2022/11/20 10:27:14;;;;;;;;;;;;;;;9.61;50.40;98689.37;4515134;31;34980;-87
2022/11/20 10:29:42;;;;;;;;;;;;;;;9.55;51.03;98684.19;4514720;31;33387;-89
2022/11/20 10:32:11;;;;;;;;;;;;;;;9.29;51.37;98685.66;4514347;31;34724;-87
2022/11/20 10:34:44;;;;;;;;;;;;;;;10.31;49.46;98683.06;4513459;31;35020;-87
2022/11/20 10:37:12;;;;;;;;;;;;;;;9.81;49.80;98676.66;4514193;31;34317;-87
2022/11/20 10:39:46;;;;;;;;;;;;;;;10.17;49.22;98675.16;4513222;31;33671;-87
2022/11/20 10:42:15;;;;;;;;;;;;;;;9.19;51.47;98669.16;4514617;31;34214;-88
2022/11/20 10:45:02;;;;;;;;;;;;;;;9.52;51.10;98673.78;4513347;31;34015;-87
2022/11/20 10:47:32;;;;;;;;;;;;;;;9.15;51.62;98678.59;4514524;31;34071;-87
2022/11/20 10:50:04;;;;;;;;;;;;;;;10.26;48.76;98666.59;4513342;31;32983;-87
2022/11/20 10:52:51;;;;;;;;;;;;;;;10.31;47.91;98670.97;4513033;31;34316;-88
2022/11/20 10:55:33;;;;;;;;;;;;;;;10.02;49.56;98673.31;4514185;31;34390;-88
2022/11/20 10:58:06;;;;;;;;;;;;;;;9.57;50.01;98677.28;4513237;31;34727;-86
2022/11/20 11:00:34;;;;;;;;;;;;;;;10.19;49.03;98689.87;4514246;31;33419;-87
2022/11/20 11:03:02;;;;;;;;;;;;;;;10.21;48.61;98702.81;4514563;31;34974;-89
2022/11/20 11:05:34;;;;;;;;;;;;;;;9.65;50.59;98701.50;4509538;31;34842;-85
2022/11/20 11:08:01;;;;;;;;;;;;;;;10.12;49.25;98697.59;4510215;31;33534;-86
2022/11/20 11:10:34;;;;;;;;;;;;;;;10.95;47.79;98688.56;4510863;31;33356;-86
2022/11/20 11:13:01;;;;;;;;;;;;;;;10.19;48.60;98688.97;4501028;31;34047;-86
2022/11/20 11:15:30;;;;;;;;;;;;;;;9.79;50.14;98698.19;4509798;31;34160;-88
2022/11/20 11:17:57;;;;;;;;;;;;;;;10.78;47.94;98700.56;4506042;31;33977;-88
2022/11/20 11:20:25;;;;;;;;;;;;;;;9.40;51.17;98707.31;4505880;31;32518;-86
2022/11/20 11:22:56;;;;;;;;;;;;;;;10.23;48.94;98717.53;4501282;31;34040;-87
2022/11/20 11:25:33;;;;;;;;;;;;;;;10.52;48.24;98711.66;4510737;31;34158;-88
2022/11/20 11:28:02;;;;;;;;;;;;;;;10.44;49.05;98706.44;4511202;31;33811;-89
2022/11/20 11:30:30;;;;;;;;;;;;;;;10.37;48.81;98704.66;4514041;31;33332;-88
2022/11/20 11:33:09;;;;;;;;;;;;;;;11.22;47.03;98700.72;4512871;31;34748;-87
2022/11/20 11:35:58;;;;;;;;;;;;;;;11.15;47.52;98701.56;4508367;31;34005;-87
2022/11/20 11:38:35;;;;;;;;;;;;;;;9.39;52.41;98697.81;4496650;31;34887;-88
2022/11/20 11:41:03;;;;;;;;;;;;;;;10.43;49.42;98699.53;4499617;31;33071;-89
2022/11/20 11:46:20;;;;;;;;;;;;;;;9.94;50.86;98687.94;4499779;31;34061;-86
2022/11/20 11:49:06;;;;;;;;;;;;;;;9.44;51.85;98685.81;4513811;31;34902;-88
2022/11/20 11:52:06;;;;;;;;;;;;;;;8.74;53.94;98680.72;4516112;31;32452;-90
2022/11/20 11:54:39;;;;;;;;;;;;;;;9.42;52.16;98665.06;4465103;31;35061;-87
2022/11/20 11:57:30;;;;;;;;;;;;;;;10.12;50.48;98666.50;4506206;31;34533;-88
2022/11/20 12:00:06;;;;;;;;;;;;;;;10.52;49.39;98672.78;4508131;31;33887;-86
2022/11/20 12:02:42;;;;;;;;;;;;;;;9.58;51.66;98672.97;4516150;31;34196;-88
2022/11/20 12:05:19;;;;;;;;;;;;;;;10.16;50.31;98674.28;4515976;31;35095;-88
2022/11/20 12:07:48;;;;;;;;;;;;;;;9.74;51.86;98675.72;4509127;31;34580;-90
2022/11/20 12:10:17;;;;;;;;;;;;;;;10.17;50.27;98676.03;4502470;31;34081;-89
2022/11/20 12:12:45;;;;;;;;;;;;;;;9.45;52.59;98680.63;4498728;31;33016;-89
2022/11/20 12:15:13;;;;;;;;;;;;;;;10.80;48.76;98667.75;4506562;31;34865;-90
2022/11/20 12:17:40;;;;;;;;;;;;;;;10.79;49.40;98671.19;4500840;31;34091;-87
2022/11/20 12:20:12;;;;;;;;;;;;;;;11.10;48.67;98678.22;4506368;31;34049;-89
2022/11/20 12:22:47;;;;;;;;;;;;;;;10.60;49.74;98672.81;4504621;31;34131;-86
2022/11/20 12:25:15;;;;;;;;;;;;;;;10.04;52.06;98668.16;4511591;31;34885;-90
2022/11/20 12:28:03;;;;;;;;;;;;;;;10.39;51.09;98665.81;4513748;31;35180;-88
2022/11/20 12:30:32;;;;;;;;;;;;;;;10.38;50.87;98653.69;4507604;31;34166;-87
2022/11/20 12:33:03;;;;;;;;;;;;;;;11.13;49.12;98656.59;4504424;31;33401;-87
2022/11/20 12:35:50;;;;;;;;;;;;;;;10.58;50.42;98656.41;4501687;31;35052;-85
2022/11/20 12:38:27;;;;;;;;;;;;;;;9.45;53.28;98661.66;4505156;31;34945;-91
2022/11/20 12:41:13;;;;;;;;;;;;;;;9.82;52.09;98661.97;4508188;31;33494;-86
2022/11/20 12:47:10;;;;;;;;;;;;;;;10.51;50.71;98662.44;4487348;31;34045;-87
2022/11/20 12:49:42;;;;;;;;;;;;;;;9.86;51.96;98658.53;4497279;31;34916;-88
2022/11/20 12:52:16;;;;;;;;;;;;;;;11.34;48.60;98660.97;4499635;31;32801;-88
2022/11/20 12:54:54;;;;;;;;;;;;;;;11.57;47.95;98674.84;4498414;31;33819;-91
2022/11/20 12:57:21;;;;;;;;;;;;;;;11.71;47.91;98676.59;4506410;31;33697;-90
2022/11/20 13:00:09;;;;;;;;;;;;;;;12.24;46.38;98675.72;4512441;31;34990;-93
2022/11/20 13:02:37;;;;;;;;;;;;;;;11.66;47.06;98674.81;4498833;31;34637;-91
2022/11/20 13:05:07;;;;;;;;;;;;;;;12.21;45.15;98678.31;4512534;31;33409;-87
2022/11/20 13:07:35;;;;;;;;;;;;;;;11.73;45.93;98669.66;4514408;31;34068;-91
2022/11/20 13:10:03;;;;;;;;;;;;;;;11.59;46.05;98667.94;4508183;31;34365;-88
2022/11/20 13:12:37;;;;;;;;;;;;;;;11.59;46.74;98667.03;4499405;31;34399;-92